Terminal Aerodrome Forecast
Issued by NWS

Home | Current Version | Previous Version | Text Only | Print | Product List | Glossary On
Versions: 1 2 3 4 5 6 7 8 9 10 11 12 13 14 15
108
FTUS46 KSEW 240520
TAFOLM
TAF
KOLM 240520Z 2406/2506 12003KT 6SM -RA BR FEW020 BKN028 OVC035
     FM241000 20010KT P6SM -RA OVC030
     FM241400 20012G22KT P6SM -SHRA BKN035 BKN050
     FM250300 20012KT P6SM VCSH SCT025 BKN050=

USA.gov is the U.S. government's official web portal to all federal, state and local government web resources and services.